sensor_id;sensor_type;location;lat;lon;timestamp;temperature;humidity
780;DHT22;373;49.342;8.146;2023-06-10T00:00:12;23.70;1.00
780;DHT22;373;49.342;8.146;2023-06-10T00:02:42;23.70;1.00
780;DHT22;373;49.342;8.146;2023-06-10T00:05:09;23.60;1.00
780;DHT22;373;49.342;8.146;2023-06-10T00:07:36;23.60;1.00
780;DHT22;373;49.342;8.146;2023-06-10T00:10:05;23.60;1.00
780;DHT22;373;49.342;8.146;2023-06-10T00:12:32;23.60;1.00
780;DHT22;373;49.342;8.146;2023-06-10T00:15:04;23.60;1.00
780;DHT22;373;49.342;8.146;2023-06-10T00:17:33;23.70;1.00
780;DHT22;373;49.342;8.146;2023-06-10T00:20:00;23.70;1.00
780;DHT22;373;49.342;8.146;2023-06-10T00:22:30;23.80;1.00
780;DHT22;373;49.342;8.146;2023-06-10T00:24:58;23.90;1.00
780;DHT22;373;49.342;8.146;2023-06-10T00:27:24;23.90;1.00
780;DHT22;373;49.342;8.146;2023-06-10T00:29:56;23.90;1.00
780;DHT22;373;49.342;8.146;2023-06-10T00:32:24;23.80;1.00
780;DHT22;373;49.342;8.146;2023-06-10T00:34:52;23.80;1.00
780;DHT22;373;49.342;8.146;2023-06-10T00:37:19;23.90;1.00
780;DHT22;373;49.342;8.146;2023-06-10T00:39:46;24.00;1.00
780;DHT22;373;49.342;8.146;2023-06-10T00:42:13;24.20;1.00
780;DHT22;373;49.342;8.146;2023-06-10T00:44:40;24.00;1.00
780;DHT22;373;49.342;8.146;2023-06-10T00:47:09;23.90;1.00
780;DHT22;373;49.342;8.146;2023-06-10T00:49:36;24.00;1.00
780;DHT22;373;49.342;8.146;2023-06-10T00:52:06;23.90;1.00
780;DHT22;373;49.342;8.146;2023-06-10T00:54:34;24.00;1.00
780;DHT22;373;49.342;8.146;2023-06-10T00:57:01;24.10;1.00
780;DHT22;373;49.342;8.146;2023-06-10T00:59:29;24.00;1.00
780;DHT22;373;49.342;8.146;2023-06-10T01:01:56;23.80;1.00
780;DHT22;373;49.342;8.146;2023-06-10T01:04:23;23.60;1.00
780;DHT22;373;49.342;8.146;2023-06-10T01:06:57;23.50;1.00
780;DHT22;373;49.342;8.146;2023-06-10T01:09:33;23.40;1.00
780;DHT22;373;49.342;8.146;2023-06-10T01:12:08;23.30;1.00
780;DHT22;373;49.342;8.146;2023-06-10T01:14:36;23.20;1.00
780;DHT22;373;49.342;8.146;2023-06-10T01:17:06;23.20;1.00
780;DHT22;373;49.342;8.146;2023-06-10T01:19:35;23.10;1.00
780;DHT22;373;49.342;8.146;2023-06-10T01:22:04;23.20;1.00
780;DHT22;373;49.342;8.146;2023-06-10T01:24:31;23.10;1.00
780;DHT22;373;49.342;8.146;2023-06-10T01:27:06;23.00;1.00
780;DHT22;373;49.342;8.146;2023-06-10T01:29:37;23.10;1.00
780;DHT22;373;49.342;8.146;2023-06-10T01:32:12;23.00;1.00
780;DHT22;373;49.342;8.146;2023-06-10T01:34:42;22.90;1.00
780;DHT22;373;49.342;8.146;2023-06-10T01:37:13;22.80;1.00
780;DHT22;373;49.342;8.146;2023-06-10T01:39:42;22.70;1.00
780;DHT22;373;49.342;8.146;2023-06-10T01:42:11;22.60;1.00
780;DHT22;373;49.342;8.146;2023-06-10T01:44:39;22.60;1.00
780;DHT22;373;49.342;8.146;2023-06-10T01:47:07;22.70;1.00
780;DHT22;373;49.342;8.146;2023-06-10T01:49:35;22.70;1.00
780;DHT22;373;49.342;8.146;2023-06-10T01:52:02;22.70;1.00
780;DHT22;373;49.342;8.146;2023-06-10T01:54:34;22.60;1.00
780;DHT22;373;49.342;8.146;2023-06-10T01:57:01;22.60;1.00
780;DHT22;373;49.342;8.146;2023-06-10T01:59:28;22.60;1.00
780;DHT22;373;49.342;8.146;2023-06-10T02:01:55;22.60;1.00
780;DHT22;373;49.342;8.146;2023-06-10T02:04:22;22.40;1.00
780;DHT22;373;49.342;8.146;2023-06-10T02:06:49;22.40;1.00
780;DHT22;373;49.342;8.146;2023-06-10T02:09:17;22.30;1.00
780;DHT22;373;49.342;8.146;2023-06-10T02:11:46;22.30;1.00
780;DHT22;373;49.342;8.146;2023-06-10T02:14:13;22.10;1.00
780;DHT22;373;49.342;8.146;2023-06-10T02:16:40;21.90;1.00
780;DHT22;373;49.342;8.146;2023-06-10T02:19:07;21.70;1.00
780;DHT22;373;49.342;8.146;2023-06-10T02:21:34;21.50;1.00
780;DHT22;373;49.342;8.146;2023-06-10T02:24:02;21.50;1.00
780;DHT22;373;49.342;8.146;2023-06-10T02:26:29;21.50;1.00
780;DHT22;373;49.342;8.146;2023-06-10T02:29:01;21.40;1.00
780;DHT22;373;49.342;8.146;2023-06-10T02:31:29;21.20;1.00
780;DHT22;373;49.342;8.146;2023-06-10T02:33:56;21.00;5.00
780;DHT22;373;49.342;8.146;2023-06-10T02:36:24;21.10;15.70
780;DHT22;373;49.342;8.146;2023-06-10T02:38:53;21.10;8.50
780;DHT22;373;49.342;8.146;2023-06-10T02:41:20;21.00;14.90
780;DHT22;373;49.342;8.146;2023-06-10T02:43:50;21.10;13.40
780;DHT22;373;49.342;8.146;2023-06-10T02:46:18;20.90;25.10
780;DHT22;373;49.342;8.146;2023-06-10T02:48:46;21.10;34.70
780;DHT22;373;49.342;8.146;2023-06-10T02:51:19;20.90;26.90
780;DHT22;373;49.342;8.146;2023-06-10T02:53:49;21.00;39.80
780;DHT22;373;49.342;8.146;2023-06-10T02:56:16;20.90;46.80
780;DHT22;373;49.342;8.146;2023-06-10T02:58:43;20.70;58.00
780;DHT22;373;49.342;8.146;2023-06-10T03:01:14;20.70;63.20
780;DHT22;373;49.342;8.146;2023-06-10T03:03:50;20.80;57.50
780;DHT22;373;49.342;8.146;2023-06-10T03:06:18;20.90;55.10
780;DHT22;373;49.342;8.146;2023-06-10T03:08:47;20.80;53.00
780;DHT22;373;49.342;8.146;2023-06-10T03:11:17;20.90;61.70
780;DHT22;373;49.342;8.146;2023-06-10T03:13:45;20.80;51.20
780;DHT22;373;49.342;8.146;2023-06-10T03:16:16;20.80;60.30
780;DHT22;373;49.342;8.146;2023-06-10T03:18:43;20.70;65.30
780;DHT22;373;49.342;8.146;2023-06-10T03:21:11;20.60;68.90
780;DHT22;373;49.342;8.146;2023-06-10T03:23:41;20.50;79.50
780;DHT22;373;49.342;8.146;2023-06-10T03:26:08;20.70;78.70
780;DHT22;373;49.342;8.146;2023-06-10T03:28:38;20.70;78.90
780;DHT22;373;49.342;8.146;2023-06-10T03:31:06;20.80;81.30
780;DHT22;373;49.342;8.146;2023-06-10T03:33:34;20.80;74.00
780;DHT22;373;49.342;8.146;2023-06-10T03:36:02;20.80;74.40
780;DHT22;373;49.342;8.146;2023-06-10T03:38:31;20.80;82.70
780;DHT22;373;49.342;8.146;2023-06-10T03:40:58;20.60;81.00
780;DHT22;373;49.342;8.146;2023-06-10T03:43:25;20.70;92.30
780;DHT22;373;49.342;8.146;2023-06-10T03:45:54;20.80;92.30
780;DHT22;373;49.342;8.146;2023-06-10T03:48:21;20.80;84.70
780;DHT22;373;49.342;8.146;2023-06-10T03:50:51;20.80;88.00
780;DHT22;373;49.342;8.146;2023-06-10T03:53:20;20.80;91.70
780;DHT22;373;49.342;8.146;2023-06-10T03:55:49;20.90;84.80
780;DHT22;373;49.342;8.146;2023-06-10T03:58:19;21.20;82.50
780;DHT22;373;49.342;8.146;2023-06-10T04:00:47;21.30;71.20
780;DHT22;373;49.342;8.146;2023-06-10T04:03:15;21.20;66.60
780;DHT22;373;49.342;8.146;2023-06-10T04:05:50;21.10;70.40
780;DHT22;373;49.342;8.146;2023-06-10T04:08:18;21.00;90.90
780;DHT22;373;49.342;8.146;2023-06-10T04:10:46;21.20;82.00
780;DHT22;373;49.342;8.146;2023-06-10T04:13:15;21.20;87.90
780;DHT22;373;49.342;8.146;2023-06-10T04:15:51;21.30;83.10
780;DHT22;373;49.342;8.146;2023-06-10T04:18:20;21.50;75.60
780;DHT22;373;49.342;8.146;2023-06-10T04:20:48;21.50;74.10
780;DHT22;373;49.342;8.146;2023-06-10T04:23:16;21.30;79.50
780;DHT22;373;49.342;8.146;2023-06-10T04:25:45;21.60;72.00
780;DHT22;373;49.342;8.146;2023-06-10T04:28:15;21.70;68.10
780;DHT22;373;49.342;8.146;2023-06-10T04:30:43;22.00;59.70
780;DHT22;373;49.342;8.146;2023-06-10T04:33:12;22.20;59.90
780;DHT22;373;49.342;8.146;2023-06-10T04:35:40;22.10;54.50
780;DHT22;373;49.342;8.146;2023-06-10T04:38:11;22.20;55.00
780;DHT22;373;49.342;8.146;2023-06-10T04:40:38;22.30;54.70
780;DHT22;373;49.342;8.146;2023-06-10T04:43:06;22.60;52.30
780;DHT22;373;49.342;8.146;2023-06-10T04:45:35;22.80;47.20
780;DHT22;373;49.342;8.146;2023-06-10T04:48:02;23.10;46.60
780;DHT22;373;49.342;8.146;2023-06-10T04:50:29;23.10;41.60
780;DHT22;373;49.342;8.146;2023-06-10T04:52:58;23.20;38.80
780;DHT22;373;49.342;8.146;2023-06-10T04:55:26;23.10;36.90
780;DHT22;373;49.342;8.146;2023-06-10T04:57:53;23.20;36.00
780;DHT22;373;49.342;8.146;2023-06-10T05:00:20;23.30;34.50
780;DHT22;373;49.342;8.146;2023-06-10T05:02:48;23.30;31.90
780;DHT22;373;49.342;8.146;2023-06-10T05:05:17;23.40;32.90
780;DHT22;373;49.342;8.146;2023-06-10T05:07:44;23.70;34.20
780;DHT22;373;49.342;8.146;2023-06-10T05:10:11;24.00;30.50
780;DHT22;373;49.342;8.146;2023-06-10T05:12:38;24.10;24.90
780;DHT22;373;49.342;8.146;2023-06-10T05:15:06;24.50;20.50
780;DHT22;373;49.342;8.146;2023-06-10T05:17:34;24.70;17.60
780;DHT22;373;49.342;8.146;2023-06-10T05:20:03;24.90;15.10
780;DHT22;373;49.342;8.146;2023-06-10T05:22:30;24.90;15.30
780;DHT22;373;49.342;8.146;2023-06-10T05:24:57;25.30;13.40
780;DHT22;373;49.342;8.146;2023-06-10T05:27:24;25.30;12.80
780;DHT22;373;49.342;8.146;2023-06-10T05:29:51;25.40;10.30
780;DHT22;373;49.342;8.146;2023-06-10T05:32:18;25.50;8.70
780;DHT22;373;49.342;8.146;2023-06-10T05:34:45;25.60;4.90
780;DHT22;373;49.342;8.146;2023-06-10T05:37:14;25.70;6.80
780;DHT22;373;49.342;8.146;2023-06-10T05:39:41;25.80;6.40
780;DHT22;373;49.342;8.146;2023-06-10T05:42:08;26.20;4.10
780;DHT22;373;49.342;8.146;2023-06-10T05:44:36;26.30;1.00
780;DHT22;373;49.342;8.146;2023-06-10T05:47:04;26.60;1.00
780;DHT22;373;49.342;8.146;2023-06-10T05:49:31;26.50;1.00
780;DHT22;373;49.342;8.146;2023-06-10T05:51:58;26.80;1.00
780;DHT22;373;49.342;8.146;2023-06-10T05:54:26;26.50;1.00
780;DHT22;373;49.342;8.146;2023-06-10T05:56:54;26.40;1.00
780;DHT22;373;49.342;8.146;2023-06-10T05:59:21;26.30;1.00
780;DHT22;373;49.342;8.146;2023-06-10T06:01:50;26.40;1.00
780;DHT22;373;49.342;8.146;2023-06-10T06:04:17;26.40;1.00
780;DHT22;373;49.342;8.146;2023-06-10T06:06:44;26.70;1.00
780;DHT22;373;49.342;8.146;2023-06-10T06:09:11;26.70;1.00
780;DHT22;373;49.342;8.146;2023-06-10T06:11:40;26.50;1.00
780;DHT22;373;49.342;8.146;2023-06-10T06:14:10;26.30;1.00
780;DHT22;373;49.342;8.146;2023-06-10T06:16:37;26.60;1.00
780;DHT22;373;49.342;8.146;2023-06-10T06:19:04;26.60;1.00
780;DHT22;373;49.342;8.146;2023-06-10T06:21:31;26.70;1.00
780;DHT22;373;49.342;8.146;2023-06-10T06:23:59;26.80;1.00
780;DHT22;373;49.342;8.146;2023-06-10T06:26:26;27.00;1.00
780;DHT22;373;49.342;8.146;2023-06-10T06:28:55;27.40;1.00
780;DHT22;373;49.342;8.146;2023-06-10T06:31:22;27.40;1.00
780;DHT22;373;49.342;8.146;2023-06-10T06:33:49;27.00;1.00
780;DHT22;373;49.342;8.146;2023-06-10T06:36:16;27.10;1.00
780;DHT22;373;49.342;8.146;2023-06-10T06:38:43;26.80;1.00
780;DHT22;373;49.342;8.146;2023-06-10T06:41:10;26.70;1.00
780;DHT22;373;49.342;8.146;2023-06-10T06:43:37;26.60;1.00
780;DHT22;373;49.342;8.146;2023-06-10T06:46:25;27.00;1.00
780;DHT22;373;49.342;8.146;2023-06-10T06:48:52;26.80;1.00
780;DHT22;373;49.342;8.146;2023-06-10T06:51:19;26.50;1.00
780;DHT22;373;49.342;8.146;2023-06-10T06:53:46;26.90;1.00
780;DHT22;373;49.342;8.146;2023-06-10T06:56:16;27.50;1.00
780;DHT22;373;49.342;8.146;2023-06-10T06:58:43;28.10;1.00
780;DHT22;373;49.342;8.146;2023-06-10T07:01:10;28.20;1.00
780;DHT22;373;49.342;8.146;2023-06-10T07:03:42;28.00;1.00
780;DHT22;373;49.342;8.146;2023-06-10T07:06:09;27.30;1.00
780;DHT22;373;49.342;8.146;2023-06-10T07:08:36;27.10;1.00
780;DHT22;373;49.342;8.146;2023-06-10T07:11:03;26.70;1.00
780;DHT22;373;49.342;8.146;2023-06-10T07:13:30;27.20;1.00
780;DHT22;373;49.342;8.146;2023-06-10T07:15:57;27.20;1.00
780;DHT22;373;49.342;8.146;2023-06-10T07:18:24;27.10;1.00
780;DHT22;373;49.342;8.146;2023-06-10T07:20:53;26.80;1.00
780;DHT22;373;49.342;8.146;2023-06-10T07:23:20;26.90;1.00
780;DHT22;373;49.342;8.146;2023-06-10T07:25:47;26.90;1.00
780;DHT22;373;49.342;8.146;2023-06-10T07:28:14;26.90;1.00
780;DHT22;373;49.342;8.146;2023-06-10T07:30:41;27.10;1.00
780;DHT22;373;49.342;8.146;2023-06-10T07:33:08;27.60;1.00
780;DHT22;373;49.342;8.146;2023-06-10T07:35:36;27.40;1.00
780;DHT22;373;49.342;8.146;2023-06-10T07:38:05;28.00;1.00
780;DHT22;373;49.342;8.146;2023-06-10T07:40:32;27.50;1.00
780;DHT22;373;49.342;8.146;2023-06-10T07:42:59;26.70;1.00
780;DHT22;373;49.342;8.146;2023-06-10T07:45:26;26.90;1.00
780;DHT22;373;49.342;8.146;2023-06-10T07:47:53;26.60;1.00
780;DHT22;373;49.342;8.146;2023-06-10T07:50:20;27.40;1.00
780;DHT22;373;49.342;8.146;2023-06-10T07:52:47;28.00;1.00
780;DHT22;373;49.342;8.146;2023-06-10T07:55:16;27.50;1.00
780;DHT22;373;49.342;8.146;2023-06-10T07:57:43;27.70;1.00
780;DHT22;373;49.342;8.146;2023-06-10T08:00:11;27.70;1.00
780;DHT22;373;49.342;8.146;2023-06-10T08:02:41;27.70;1.00
780;DHT22;373;49.342;8.146;2023-06-10T08:05:08;27.70;1.00
780;DHT22;373;49.342;8.146;2023-06-10T08:07:35;27.80;1.00
780;DHT22;373;49.342;8.146;2023-06-10T08:10:03;28.70;1.00
780;DHT22;373;49.342;8.146;2023-06-10T08:12:32;28.90;1.00
780;DHT22;373;49.342;8.146;2023-06-10T08:15:00;29.40;1.00
780;DHT22;373;49.342;8.146;2023-06-10T08:17:27;29.60;1.00
780;DHT22;373;49.342;8.146;2023-06-10T08:19:54;29.20;1.00
780;DHT22;373;49.342;8.146;2023-06-10T08:22:21;29.30;1.00
780;DHT22;373;49.342;8.146;2023-06-10T08:24:48;29.40;1.00
780;DHT22;373;49.342;8.146;2023-06-10T08:27:15;29.80;1.00
780;DHT22;373;49.342;8.146;2023-06-10T08:29:44;29.50;1.00
780;DHT22;373;49.342;8.146;2023-06-10T08:32:11;28.90;1.00
780;DHT22;373;49.342;8.146;2023-06-10T08:34:38;29.00;1.00
780;DHT22;373;49.342;8.146;2023-06-10T08:37:07;28.70;1.00
780;DHT22;373;49.342;8.146;2023-06-10T08:39:34;28.30;1.00
780;DHT22;373;49.342;8.146;2023-06-10T08:42:11;28.20;1.00
780;DHT22;373;49.342;8.146;2023-06-10T08:44:40;28.40;1.00
780;DHT22;373;49.342;8.146;2023-06-10T08:47:13;28.70;1.00
780;DHT22;373;49.342;8.146;2023-06-10T08:49:43;28.70;1.00
780;DHT22;373;49.342;8.146;2023-06-10T08:52:14;28.90;1.00
780;DHT22;373;49.342;8.146;2023-06-10T08:54:43;29.40;1.00
780;DHT22;373;49.342;8.146;2023-06-10T08:57:16;30.30;1.00
780;DHT22;373;49.342;8.146;2023-06-10T08:59:46;30.80;1.00
780;DHT22;373;49.342;8.146;2023-06-10T09:02:15;30.30;1.00
780;DHT22;373;49.342;8.146;2023-06-10T09:04:46;30.10;1.00
780;DHT22;373;49.342;8.146;2023-06-10T09:07:14;30.00;1.00
780;DHT22;373;49.342;8.146;2023-06-10T09:09:42;29.90;1.00
780;DHT22;373;49.342;8.146;2023-06-10T09:12:10;30.60;1.00
780;DHT22;373;49.342;8.146;2023-06-10T09:14:37;31.30;1.00
780;DHT22;373;49.342;8.146;2023-06-10T09:17:06;30.80;1.00
780;DHT22;373;49.342;8.146;2023-06-10T09:19:35;30.10;1.00
780;DHT22;373;49.342;8.146;2023-06-10T09:22:06;29.70;1.00
780;DHT22;373;49.342;8.146;2023-06-10T09:24:39;29.60;1.00
780;DHT22;373;49.342;8.146;2023-06-10T09:27:07;29.80;1.00
780;DHT22;373;49.342;8.146;2023-06-10T09:29:46;30.10;1.00
780;DHT22;373;49.342;8.146;2023-06-10T09:32:13;31.00;1.00
780;DHT22;373;49.342;8.146;2023-06-10T09:34:43;31.30;1.00
780;DHT22;373;49.342;8.146;2023-06-10T09:37:10;31.90;1.00
780;DHT22;373;49.342;8.146;2023-06-10T09:39:39;31.50;1.00
780;DHT22;373;49.342;8.146;2023-06-10T09:42:15;30.70;1.00
780;DHT22;373;49.342;8.146;2023-06-10T09:44:49;30.00;1.00
780;DHT22;373;49.342;8.146;2023-06-10T09:47:20;30.70;1.00
780;DHT22;373;49.342;8.146;2023-06-10T09:49:48;31.60;1.00
780;DHT22;373;49.342;8.146;2023-06-10T09:52:21;31.00;1.00
780;DHT22;373;49.342;8.146;2023-06-10T09:54:48;30.50;1.00
780;DHT22;373;49.342;8.146;2023-06-10T09:57:17;30.90;1.00
780;DHT22;373;49.342;8.146;2023-06-10T09:59:44;31.60;1.00
780;DHT22;373;49.342;8.146;2023-06-10T10:02:17;31.40;1.00
780;DHT22;373;49.342;8.146;2023-06-10T10:04:48;30.90;1.00
780;DHT22;373;49.342;8.146;2023-06-10T10:07:17;30.90;1.00
780;DHT22;373;49.342;8.146;2023-06-10T10:09:46;31.00;1.00
780;DHT22;373;49.342;8.146;2023-06-10T10:12:15;31.50;1.00
780;DHT22;373;49.342;8.146;2023-06-10T10:14:46;31.70;1.00
780;DHT22;373;49.342;8.146;2023-06-10T10:17:15;31.80;1.00
780;DHT22;373;49.342;8.146;2023-06-10T10:19:46;31.60;1.00
780;DHT22;373;49.342;8.146;2023-06-10T10:22:26;31.30;1.00
780;DHT22;373;49.342;8.146;2023-06-10T10:24:57;31.10;1.00
780;DHT22;373;49.342;8.146;2023-06-10T10:27:28;30.60;1.00
780;DHT22;373;49.342;8.146;2023-06-10T10:29:58;30.60;1.00
780;DHT22;373;49.342;8.146;2023-06-10T10:32:36;30.80;1.00
780;DHT22;373;49.342;8.146;2023-06-10T10:35:08;30.80;1.00
780;DHT22;373;49.342;8.146;2023-06-10T10:37:37;30.70;1.00
780;DHT22;373;49.342;8.146;2023-06-10T10:40:05;30.50;1.00
780;DHT22;373;49.342;8.146;2023-06-10T10:42:34;30.60;1.00
780;DHT22;373;49.342;8.146;2023-06-10T10:45:02;30.40;1.00
780;DHT22;373;49.342;8.146;2023-06-10T10:47:31;30.50;1.00
780;DHT22;373;49.342;8.146;2023-06-10T10:49:59;30.60;1.00
780;DHT22;373;49.342;8.146;2023-06-10T10:52:52;30.40;1.00
780;DHT22;373;49.342;8.146;2023-06-10T10:55:20;31.20;1.00
780;DHT22;373;49.342;8.146;2023-06-10T10:57:54;31.50;1.00
780;DHT22;373;49.342;8.146;2023-06-10T11:00:27;31.40;1.00
780;DHT22;373;49.342;8.146;2023-06-10T11:02:58;31.20;1.00
780;DHT22;373;49.342;8.146;2023-06-10T11:05:36;31.20;1.00
780;DHT22;373;49.342;8.146;2023-06-10T11:08:05;31.60;1.00
780;DHT22;373;49.342;8.146;2023-06-10T11:10:34;31.80;1.00
780;DHT22;373;49.342;8.146;2023-06-10T11:13:06;32.10;1.00
780;DHT22;373;49.342;8.146;2023-06-10T11:15:38;31.70;1.00
780;DHT22;373;49.342;8.146;2023-06-10T11:18:14;31.80;1.00
780;DHT22;373;49.342;8.146;2023-06-10T11:20:52;32.10;1.00
780;DHT22;373;49.342;8.146;2023-06-10T11:23:42;31.30;1.00
780;DHT22;373;49.342;8.146;2023-06-10T11:26:18;31.20;1.00
780;DHT22;373;49.342;8.146;2023-06-10T11:29:07;31.50;1.00
780;DHT22;373;49.342;8.146;2023-06-10T11:31:45;32.10;1.00
780;DHT22;373;49.342;8.146;2023-06-10T11:34:13;31.70;1.00
780;DHT22;373;49.342;8.146;2023-06-10T11:36:41;30.60;1.00
780;DHT22;373;49.342;8.146;2023-06-10T11:39:12;30.90;1.00
780;DHT22;373;49.342;8.146;2023-06-10T11:41:39;31.40;1.00
780;DHT22;373;49.342;8.146;2023-06-10T11:44:11;31.50;1.00
780;DHT22;373;49.342;8.146;2023-06-10T11:46:39;31.40;1.00
780;DHT22;373;49.342;8.146;2023-06-10T11:49:08;30.60;1.00
780;DHT22;373;49.342;8.146;2023-06-10T11:51:36;30.40;1.00
780;DHT22;373;49.342;8.146;2023-06-10T11:54:05;31.10;1.00
780;DHT22;373;49.342;8.146;2023-06-10T11:56:33;31.50;1.00
780;DHT22;373;49.342;8.146;2023-06-10T11:59:02;31.60;1.00
780;DHT22;373;49.342;8.146;2023-06-10T12:01:32;31.80;1.00
780;DHT22;373;49.342;8.146;2023-06-10T12:04:01;31.80;1.00
780;DHT22;373;49.342;8.146;2023-06-10T12:06:38;31.50;1.00
780;DHT22;373;49.342;8.146;2023-06-10T12:09:06;30.80;1.00
780;DHT22;373;49.342;8.146;2023-06-10T12:11:35;30.90;1.00
780;DHT22;373;49.342;8.146;2023-06-10T12:14:03;31.10;1.00
780;DHT22;373;49.342;8.146;2023-06-10T12:16:30;31.00;1.00
780;DHT22;373;49.342;8.146;2023-06-10T12:19:02;30.90;1.00
780;DHT22;373;49.342;8.146;2023-06-10T12:21:29;31.10;1.00
780;DHT22;373;49.342;8.146;2023-06-10T12:24:01;32.00;1.00
780;DHT22;373;49.342;8.146;2023-06-10T12:26:39;32.70;1.00
780;DHT22;373;49.342;8.146;2023-06-10T12:29:20;32.40;1.00
780;DHT22;373;49.342;8.146;2023-06-10T12:31:59;32.00;1.00
780;DHT22;373;49.342;8.146;2023-06-10T12:34:31;31.80;1.00
780;DHT22;373;49.342;8.146;2023-06-10T12:36:59;31.30;1.00
780;DHT22;373;49.342;8.146;2023-06-10T12:39:26;31.20;1.00
780;DHT22;373;49.342;8.146;2023-06-10T12:41:55;31.40;1.00
780;DHT22;373;49.342;8.146;2023-06-10T12:44:33;31.10;1.00
780;DHT22;373;49.342;8.146;2023-06-10T12:47:01;30.30;1.00
780;DHT22;373;49.342;8.146;2023-06-10T12:49:28;30.20;1.00
780;DHT22;373;49.342;8.146;2023-06-10T12:51:55;30.20;1.00
780;DHT22;373;49.342;8.146;2023-06-10T12:54:25;30.60;1.00
780;DHT22;373;49.342;8.146;2023-06-10T12:56:52;31.10;1.00
780;DHT22;373;49.342;8.146;2023-06-10T12:59:21;31.00;1.00
780;DHT22;373;49.342;8.146;2023-06-10T13:01:50;31.60;1.00
780;DHT22;373;49.342;8.146;2023-06-10T13:04:18;31.40;1.00
780;DHT22;373;49.342;8.146;2023-06-10T13:06:45;31.20;1.00
780;DHT22;373;49.342;8.146;2023-06-10T13:09:12;31.30;1.00
780;DHT22;373;49.342;8.146;2023-06-10T13:11:40;30.80;1.00
780;DHT22;373;49.342;8.146;2023-06-10T13:14:07;30.70;1.00
780;DHT22;373;49.342;8.146;2023-06-10T13:16:36;30.70;1.00
780;DHT22;373;49.342;8.146;2023-06-10T13:19:04;30.90;1.00
780;DHT22;373;49.342;8.146;2023-06-10T13:21:32;31.00;1.00
780;DHT22;373;49.342;8.146;2023-06-10T13:23:59;31.00;1.00
780;DHT22;373;49.342;8.146;2023-06-10T13:26:26;31.30;1.00
780;DHT22;373;49.342;8.146;2023-06-10T13:28:53;31.90;1.00
780;DHT22;373;49.342;8.146;2023-06-10T13:31:20;31.80;1.00
780;DHT22;373;49.342;8.146;2023-06-10T13:33:49;31.50;1.00
780;DHT22;373;49.342;8.146;2023-06-10T13:36:16;31.10;1.00
780;DHT22;373;49.342;8.146;2023-06-10T13:38:43;30.70;1.00
780;DHT22;373;49.342;8.146;2023-06-10T13:41:11;30.40;1.00
780;DHT22;373;49.342;8.146;2023-06-10T13:43:38;30.40;1.00
780;DHT22;373;49.342;8.146;2023-06-10T13:46:05;30.40;1.00
780;DHT22;373;49.342;8.146;2023-06-10T13:48:35;30.10;1.00
780;DHT22;373;49.342;8.146;2023-06-10T13:51:03;30.10;1.00
780;DHT22;373;49.342;8.146;2023-06-10T13:53:30;30.40;1.00
780;DHT22;373;49.342;8.146;2023-06-10T13:55:57;30.20;1.00
780;DHT22;373;49.342;8.146;2023-06-10T13:58:25;30.70;1.00
780;DHT22;373;49.342;8.146;2023-06-10T14:00:52;30.90;1.00
780;DHT22;373;49.342;8.146;2023-06-10T14:03:19;30.80;1.00
780;DHT22;373;49.342;8.146;2023-06-10T14:05:46;30.70;1.00
780;DHT22;373;49.342;8.146;2023-06-10T14:08:15;30.70;1.00
780;DHT22;373;49.342;8.146;2023-06-10T14:10:42;30.60;1.00
780;DHT22;373;49.342;8.146;2023-06-10T14:13:09;30.80;1.00
780;DHT22;373;49.342;8.146;2023-06-10T14:15:36;31.30;1.00
780;DHT22;373;49.342;8.146;2023-06-10T14:18:04;31.20;1.00
780;DHT22;373;49.342;8.146;2023-06-10T14:20:31;31.60;1.00
780;DHT22;373;49.342;8.146;2023-06-10T14:22:58;31.20;1.00
780;DHT22;373;49.342;8.146;2023-06-10T14:26:57;30.50;1.00
780;DHT22;373;49.342;8.146;2023-06-10T14:29:24;30.10;1.00
780;DHT22;373;49.342;8.146;2023-06-10T14:31:53;30.20;1.00
780;DHT22;373;49.342;8.146;2023-06-10T14:34:20;30.30;1.00
780;DHT22;373;49.342;8.146;2023-06-10T14:36:49;30.50;1.00
780;DHT22;373;49.342;8.146;2023-06-10T14:39:24;30.60;1.00
780;DHT22;373;49.342;8.146;2023-06-10T14:42:02;30.20;1.00
780;DHT22;373;49.342;8.146;2023-06-10T14:44:34;30.40;1.00
780;DHT22;373;49.342;8.146;2023-06-10T14:47:08;30.40;1.00
780;DHT22;373;49.342;8.146;2023-06-10T14:50:07;30.10;1.00
780;DHT22;373;49.342;8.146;2023-06-10T14:53:00;30.30;1.00
780;DHT22;373;49.342;8.146;2023-06-10T14:55:33;30.70;1.00
780;DHT22;373;49.342;8.146;2023-06-10T14:58:17;31.20;1.00
780;DHT22;373;49.342;8.146;2023-06-10T15:00:50;31.60;1.00
780;DHT22;373;49.342;8.146;2023-06-10T15:04:10;31.80;1.00
780;DHT22;373;49.342;8.146;2023-06-10T15:06:40;31.80;1.00
780;DHT22;373;49.342;8.146;2023-06-10T15:09:13;31.60;1.00
780;DHT22;373;49.342;8.146;2023-06-10T15:11:47;31.70;1.00
780;DHT22;373;49.342;8.146;2023-06-10T15:14:29;32.10;1.00
780;DHT22;373;49.342;8.146;2023-06-10T15:24:52;31.20;1.00
780;DHT22;373;49.342;8.146;2023-06-10T15:27:30;31.60;1.00
780;DHT22;373;49.342;8.146;2023-06-10T15:30:00;31.60;1.00
780;DHT22;373;49.342;8.146;2023-06-10T15:32:37;31.80;1.00
780;DHT22;373;49.342;8.146;2023-06-10T15:35:08;31.10;1.00
780;DHT22;373;49.342;8.146;2023-06-10T15:37:41;30.80;1.00
780;DHT22;373;49.342;8.146;2023-06-10T15:40:13;30.70;1.00
780;DHT22;373;49.342;8.146;2023-06-10T15:42:44;30.70;1.00
780;DHT22;373;49.342;8.146;2023-06-10T15:45:18;30.50;1.00
780;DHT22;373;49.342;8.146;2023-06-10T15:47:49;30.30;1.00
780;DHT22;373;49.342;8.146;2023-06-10T15:50:17;30.10;1.00
780;DHT22;373;49.342;8.146;2023-06-10T15:52:54;30.00;1.00
780;DHT22;373;49.342;8.146;2023-06-10T15:55:36;30.40;1.00
780;DHT22;373;49.342;8.146;2023-06-10T15:58:25;30.60;1.00
780;DHT22;373;49.342;8.146;2023-06-10T16:01:17;30.60;1.00
780;DHT22;373;49.342;8.146;2023-06-10T16:03:50;30.50;1.00
780;DHT22;373;49.342;8.146;2023-06-10T16:06:27;30.50;1.00
780;DHT22;373;49.342;8.146;2023-06-10T16:09:05;30.50;1.00
780;DHT22;373;49.342;8.146;2023-06-10T16:11:37;30.70;1.00
780;DHT22;373;49.342;8.146;2023-06-10T16:17:58;30.70;1.00
780;DHT22;373;49.342;8.146;2023-06-10T16:20:32;30.80;1.00
780;DHT22;373;49.342;8.146;2023-06-10T16:23:47;30.80;1.00
780;DHT22;373;49.342;8.146;2023-06-10T16:26:50;30.50;1.00
780;DHT22;373;49.342;8.146;2023-06-10T16:29:42;30.50;1.00
780;DHT22;373;49.342;8.146;2023-06-10T16:32:12;30.60;1.00
780;DHT22;373;49.342;8.146;2023-06-10T16:34:55;30.50;1.00
780;DHT22;373;49.342;8.146;2023-06-10T16:37:29;30.40;1.00
780;DHT22;373;49.342;8.146;2023-06-10T16:40:28;30.70;1.00
780;DHT22;373;49.342;8.146;2023-06-10T16:42:55;30.90;1.00
780;DHT22;373;49.342;8.146;2023-06-10T16:45:22;30.90;1.00
780;DHT22;373;49.342;8.146;2023-06-10T16:47:49;31.00;1.00
780;DHT22;373;49.342;8.146;2023-06-10T16:50:17;30.60;1.00
780;DHT22;373;49.342;8.146;2023-06-10T16:52:44;30.70;1.00
780;DHT22;373;49.342;8.146;2023-06-10T16:55:11;30.80;1.00
780;DHT22;373;49.342;8.146;2023-06-10T16:57:38;30.70;1.00
780;DHT22;373;49.342;8.146;2023-06-10T17:00:06;30.60;1.00
780;DHT22;373;49.342;8.146;2023-06-10T17:02:33;30.80;1.00
780;DHT22;373;49.342;8.146;2023-06-10T17:05:00;30.90;1.00
780;DHT22;373;49.342;8.146;2023-06-10T17:07:29;30.70;1.00
780;DHT22;373;49.342;8.146;2023-06-10T17:09:56;30.70;1.00
780;DHT22;373;49.342;8.146;2023-06-10T17:12:23;30.80;1.00
780;DHT22;373;49.342;8.146;2023-06-10T17:14:51;30.70;1.00
780;DHT22;373;49.342;8.146;2023-06-10T17:17:18;30.80;1.00
780;DHT22;373;49.342;8.146;2023-06-10T17:19:45;30.70;1.00